KPVE

Beech River Regional Airport

Lexington-Parsons, Tennessee, USA
METAR KPVE 181315Z AUTO 03004KT 10SM BKN009 OVC016 07/06 A3011 RMK A01
Observed Flight Rules
Jan-18 @ 13:15 UTC (31 minutes ago) Instrument Flight Rules
Wind Visibility Clouds
30° at 4 knots 10 miles
  • Broken at 900' AGL
  • Overcast at 1,600' AGL
Temperatures Readings
Current 7°C / 45°F
Dewpoint 6°C / 43°F
Humidity 93%
Altimeter 30.11" Hg
Pressure 1019.62 hPa
Elevation 149
METAR KPVE 181315Z AUTO 03004KT 10SM BKN009 OVC016 07/06 A3011 RMK A01
Observed Flight Rules
Jan-18 @ 13:15 UTC
(31 minutes ago)
IFR
Wind Visibility
30° at 4 knots 10 miles
Clouds
  • Broken at 900' AGL
  • Overcast at 1,600' AGL
Temperature Dewpoint
7°C / 45°F 6°C / 43°F
Humidity Altimeter Pressure
93% 30.11" Hg 1019.62 hPa